Time,TemperatureF,DewpointF,PressureIn,WindDirection,WindDirectionDegrees,WindSpeedMPH,WindSpeedGustMPH,Humidity,HourlyPrecipIn,Conditions,Clouds,dailyrainin,SolarRadiationWatts/m^2,SoftwareType,DateUTC
2013-06-10 00:02:00,71.0,9.0,-100.00,SE,138,4.0,6.0,9,0.00,,,0.00,1.000000,,2013-06-10 06:02:00,
2013-06-10 00:32:00,71.0,9.0,-100.00,SE,138,4.0,6.0,9,0.00,,,0.00,1.000000,,2013-06-10 06:32:00,
2013-06-10 00:53:00,71.0,12.0,-100.00,SW,226,5.0,12.0,10,0.00,,,0.00,1.000000,,2013-06-10 06:53:00,
2013-06-10 01:02:00,71.0,12.0,-100.00,SW,226,5.0,12.0,10,0.00,,,0.00,1.000000,,2013-06-10 07:02:00,
2013-06-10 01:12:00,71.0,12.0,-100.00,SW,226,5.0,12.0,10,0.00,,,0.00,1.000000,,2013-06-10 07:12:00,
2013-06-10 01:22:00,71.0,12.0,-100.00,SW,226,5.0,12.0,10,0.00,,,0.00,1.000000,,2013-06-10 07:22:00,
2013-06-10 01:32:00,71.0,12.0,-100.00,SW,226,5.0,12.0,10,0.00,,,0.00,1.000000,,2013-06-10 07:32:00,
2013-06-10 02:02:00,64.0,14.0,-100.00,SW,231,2.0,7.0,14,0.00,,,0.00,1.000000,,2013-06-10 08:02:00,
2013-06-10 02:12:00,64.0,14.0,-100.00,SW,231,2.0,7.0,14,0.00,,,0.00,1.000000,,2013-06-10 08:12:00,
2013-06-10 02:22:00,64.0,14.0,-100.00,SW,231,2.0,7.0,14,0.00,,,0.00,1.000000,,2013-06-10 08:22:00,
2013-06-10 02:32:00,64.0,14.0,-100.00,SW,231,2.0,7.0,14,0.00,,,0.00,1.000000,,2013-06-10 08:32:00,
2013-06-10 02:52:00,64.0,17.0,-100.00,WNW,288,4.0,10.0,16,0.00,,,0.00,1.000000,,2013-06-10 08:52:00,
2013-06-10 03:02:00,64.0,17.0,-100.00,WNW,288,4.0,10.0,16,0.00,,,0.00,1.000000,,2013-06-10 09:02:00,
2013-06-10 03:12:00,64.0,17.0,-100.00,WNW,288,4.0,10.0,16,0.00,,,0.00,1.000000,,2013-06-10 09:12:00,
2013-06-10 03:22:00,64.0,17.0,-100.00,WNW,288,4.0,10.0,16,0.00,,,0.00,1.000000,,2013-06-10 09:22:00,
2013-06-10 03:32:00,64.0,17.0,-100.00,WNW,288,4.0,10.0,16,0.00,,,0.00,1.000000,,2013-06-10 09:32:00,
2013-06-10 03:53:00,67.0,16.0,-100.00,NW,313,4.0,9.0,14,0.00,,,0.00,1.000000,,2013-06-10 09:53:00,
2013-06-10 04:03:00,67.0,16.0,-100.00,NW,313,4.0,9.0,14,0.00,,,0.00,1.000000,,2013-06-10 10:03:00,
2013-06-10 04:12:00,67.0,16.0,-100.00,NW,313,4.0,9.0,14,0.00,,,0.00,1.000000,,2013-06-10 10:12:00,
2013-06-10 04:22:00,67.0,16.0,-100.00,NW,313,4.0,9.0,14,0.00,,,0.00,1.000000,,2013-06-10 10:22:00,
2013-06-10 04:33:00,67.0,16.0,-100.00,NW,313,4.0,9.0,14,0.00,,,0.00,1.000000,,2013-06-10 10:33:00,
2013-06-10 04:52:00,63.0,16.0,-100.00,WSW,253,4.0,9.0,16,0.00,,,0.00,1.000000,,2013-06-10 10:52:00,
2013-06-10 05:02:00,63.0,16.0,-100.00,WSW,253,4.0,9.0,16,0.00,,,0.00,1.000000,,2013-06-10 11:02:00,
2013-06-10 05:12:00,63.0,16.0,-100.00,WSW,253,4.0,9.0,16,0.00,,,0.00,1.000000,,2013-06-10 11:12:00,
2013-06-10 05:22:00,63.0,16.0,-100.00,WSW,253,4.0,9.0,16,0.00,,,0.00,1.000000,,2013-06-10 11:22:00,
2013-06-10 05:32:00,63.0,16.0,-100.00,WSW,253,4.0,9.0,16,0.00,,,0.00,1.000000,,2013-06-10 11:32:00,
2013-06-10 07:52:00,66.0,19.0,-100.00,West,276,2.0,4.0,16,-99.99,,,0.00,62.000000,,2013-06-10 13:52:00,
2013-06-10 08:02:00,66.0,19.0,-100.00,West,276,2.0,4.0,16,-99.99,,,0.00,62.000000,,2013-06-10 14:02:00,
2013-06-10 08:12:00,66.0,19.0,-100.00,West,276,2.0,4.0,16,-99.99,,,0.00,62.000000,,2013-06-10 14:12:00,
2013-06-10 08:22:00,66.0,19.0,-100.00,West,276,2.0,4.0,16,-99.99,,,0.00,62.000000,,2013-06-10 14:22:00,
2013-06-10 08:32:00,66.0,19.0,-100.00,West,276,2.0,4.0,16,-99.99,,,0.00,62.000000,,2013-06-10 14:32:00,
2013-06-10 08:52:00,76.0,16.0,-100.00,West,267,5.0,10.0,10,0.00,,,0.00,294.000000,,2013-06-10 14:52:00,
2013-06-10 09:02:00,76.0,16.0,-100.00,West,267,5.0,10.0,10,0.00,,,0.00,294.000000,,2013-06-10 15:02:00,
2013-06-10 09:12:00,76.0,16.0,-100.00,West,267,5.0,10.0,10,0.00,,,0.00,294.000000,,2013-06-10 15:12:00,
2013-06-10 09:22:00,76.0,16.0,-100.00,West,267,5.0,10.0,10,0.00,,,0.00,294.000000,,2013-06-10 15:22:00,
2013-06-10 09:32:00,76.0,16.0,-100.00,West,267,5.0,10.0,10,0.00,,,0.00,294.000000,,2013-06-10 15:32:00,
2013-06-10 09:53:00,79.0,15.0,-100.00,WSW,240,8.0,14.0,9,0.00,,,-99.99,504.000000,,2013-06-10 15:53:00,
2013-06-10 10:03:00,79.0,15.0,-100.00,WSW,240,8.0,14.0,9,0.00,,,-99.99,504.000000,,2013-06-10 16:03:00,
2013-06-10 10:12:00,79.0,15.0,-100.00,WSW,240,8.0,14.0,9,0.00,,,-99.99,504.000000,,2013-06-10 16:12:00,
2013-06-10 10:23:00,79.0,15.0,-100.00,WSW,240,8.0,14.0,9,0.00,,,-99.99,504.000000,,2013-06-10 16:23:00,
2013-06-10 10:33:00,79.0,15.0,-100.00,WSW,240,8.0,14.0,9,0.00,,,-99.99,504.000000,,2013-06-10 16:33:00,
2013-06-10 10:36:00,81.0,14.0,-100.00,SW,225,9.0,15.0,8,0.00,,,0.00,697.000000,,2013-06-10 16:36:00,
2013-06-10 10:53:00,81.0,14.0,-100.00,SW,225,9.0,15.0,8,0.00,,,0.00,697.000000,,2013-06-10 16:53:00,
2013-06-10 11:03:00,81.0,14.0,-100.00,SW,225,9.0,15.0,8,0.00,,,0.00,697.000000,,2013-06-10 17:03:00,
2013-06-10 11:14:00,81.0,14.0,-100.00,SW,225,9.0,15.0,8,0.00,,,0.00,697.000000,,2013-06-10 17:14:00,
2013-06-10 11:26:00,81.0,14.0,-100.00,SW,225,9.0,15.0,8,0.00,,,0.00,697.000000,,2013-06-10 17:26:00,
2013-06-10 12:07:00,83.0,0.0,-100.00,WSW,241,10.0,18.0,4,0.00,,,0.00,883.000000,,2013-06-10 18:07:00,
2013-06-10 12:55:00,84.0,-5.0,-100.00,SW,236,12.0,23.0,3,0.00,,,0.00,1007.000000,,2013-06-10 18:55:00,
2013-06-10 13:03:00,84.0,-5.0,-100.00,SW,236,12.0,23.0,3,0.00,,,0.00,1007.000000,,2013-06-10 19:03:00,
2013-06-10 14:02:00,86.0,2.0,-100.00,SW,223,11.0,23.0,4,0.00,,,0.00,1080.000000,,2013-06-10 20:02:00,
2013-06-10 14:52:00,87.0,3.0,-100.00,SW,233,13.0,26.0,4,0.00,,,0.00,1091.000000,,2013-06-10 20:52:00,
2013-06-10 15:02:00,87.0,3.0,-100.00,SW,233,13.0,26.0,4,0.00,,,0.00,1091.000000,,2013-06-10 21:02:00,
2013-06-10 16:03:00,88.0,4.0,-100.00,SW,229,13.0,24.0,4,0.00,,,0.00,1049.000000,,2013-06-10 22:03:00,
2013-06-10 16:12:00,88.0,4.0,-100.00,SW,229,13.0,24.0,4,0.00,,,0.00,1049.000000,,2013-06-10 22:12:00,
2013-06-10 16:22:00,88.0,4.0,-100.00,SW,229,13.0,24.0,4,0.00,,,0.00,1049.000000,,2013-06-10 22:22:00,
2013-06-10 16:33:00,88.0,4.0,-100.00,SW,229,13.0,24.0,4,0.00,,,0.00,1049.000000,,2013-06-10 22:33:00,
2013-06-10 16:52:00,90.0,5.0,-100.00,SW,233,11.0,26.0,4,0.00,,,0.00,817.000000,,2013-06-10 22:52:00,
2013-06-10 17:02:00,90.0,5.0,-100.00,SW,233,11.0,26.0,4,0.00,,,0.00,817.000000,,2013-06-10 23:02:00,
2013-06-10 17:12:00,90.0,5.0,-100.00,SW,233,11.0,26.0,4,0.00,,,0.00,817.000000,,2013-06-10 23:12:00,
2013-06-10 17:22:00,90.0,5.0,-100.00,SW,233,11.0,26.0,4,0.00,,,0.00,817.000000,,2013-06-10 23:22:00,
2013-06-10 17:32:00,90.0,5.0,-100.00,SW,233,11.0,26.0,4,0.00,,,0.00,817.000000,,2013-06-10 23:32:00,
2013-06-10 18:02:00,88.0,9.0,-100.00,SW,232,14.0,30.0,5,0.00,,,0.00,752.000000,,2013-06-11 00:02:00,
2013-06-10 18:12:00,88.0,9.0,-100.00,SW,232,14.0,30.0,5,0.00,,,0.00,752.000000,,2013-06-11 00:12:00,
2013-06-10 18:22:00,88.0,9.0,-100.00,SW,232,14.0,30.0,5,0.00,,,0.00,752.000000,,2013-06-11 00:22:00,
2013-06-10 18:32:00,88.0,9.0,-100.00,SW,232,14.0,30.0,5,0.00,,,0.00,752.000000,,2013-06-11 00:32:00,
2013-06-10 19:02:00,85.0,7.0,-100.00,WSW,238,13.0,33.0,5,0.00,,,0.00,573.000000,,2013-06-11 01:02:00,
2013-06-10 19:12:00,85.0,7.0,-100.00,WSW,238,13.0,33.0,5,0.00,,,0.00,573.000000,,2013-06-11 01:12:00,
2013-06-10 19:22:00,85.0,7.0,-100.00,WSW,238,13.0,33.0,5,0.00,,,0.00,573.000000,,2013-06-11 01:22:00,
2013-06-10 19:52:00,82.0,8.0,-100.00,WSW,237,14.0,30.0,6,0.00,,,0.00,337.000000,,2013-06-11 01:52:00,
2013-06-10 20:02:00,82.0,8.0,-100.00,WSW,237,14.0,30.0,6,0.00,,,0.00,337.000000,,2013-06-11 02:02:00,
2013-06-10 20:12:00,82.0,8.0,-100.00,WSW,237,14.0,30.0,6,0.00,,,0.00,337.000000,,2013-06-11 02:12:00,
2013-06-10 20:22:00,82.0,8.0,-100.00,WSW,237,14.0,30.0,6,0.00,,,0.00,337.000000,,2013-06-11 02:22:00,
2013-06-10 20:32:00,82.0,8.0,-100.00,WSW,237,14.0,30.0,6,0.00,,,0.00,337.000000,,2013-06-11 02:32:00,
2013-06-10 20:52:00,76.0,-4.0,-100.00,WSW,244,10.0,24.0,4,0.00,,,0.00,96.000000,,2013-06-11 02:52:00,
2013-06-10 21:02:00,76.0,-4.0,-100.00,WSW,244,10.0,24.0,4,0.00,,,0.00,96.000000,,2013-06-11 03:02:00,
2013-06-10 21:53:00,72.0,-7.0,-100.00,WSW,239,10.0,17.0,4,0.00,,,0.00,2.000000,,2013-06-11 03:53:00,
2013-06-10 22:02:00,72.0,-7.0,-100.00,WSW,239,10.0,17.0,4,0.00,,,0.00,2.000000,,2013-06-11 04:02:00,
2013-06-10 22:53:00,68.0,-5.0,-100.00,SW,236,8.0,14.0,5,0.00,,,0.00,1.000000,,2013-06-11 04:53:00,
2013-06-10 23:02:00,68.0,-5.0,-100.00,SW,236,8.0,14.0,5,0.00,,,0.00,1.000000,,2013-06-11 05:02:00,
2013-06-10 23:52:00,66.0,-7.0,-100.00,SW,235,8.0,15.0,5,0.00,,,0.00,1.000000,,2013-06-11 05:52:00,